Time;durP1;ratioP1;P1;durP2;ratioP2;P2;SDS_P1;SDS_P2;PMS_P1;PMS_P2;Temp;Humidity;BMP_temperature;BMP_pressure;BME280_temperature;BME280_humidity;BME280_pressure;Samples;Min_cycle;Max_cycle;Signal;HPM_P1;HPM_P2
2021/08/03 00:01:09;;;;;;;4.18;1.35;;;15.40;98.10;;;;;;5924978;40;20201;-71
2021/08/03 00:05:19;;;;;;;7.00;1.63;;;15.40;98.10;;;;;;5927078;39;20136;-70
2021/08/03 00:09:23;;;;;;;5.43;1.40;;;15.40;98.10;;;;;;5920349;40;20042;-69
2021/08/03 00:13:28;;;;;;;3.72;1.25;;;15.40;98.10;;;;;;5927717;39;20041;-70
2021/08/03 00:17:30;;;;;;;6.53;1.40;;;15.40;98.10;;;;;;5918735;40;20047;-70
2021/08/03 00:21:34;;;;;;;5.95;1.50;;;15.40;98.20;;;;;;5919792;40;20148;-71
2021/08/03 00:25:36;;;;;;;6.32;1.70;;;15.40;98.20;;;;;;5920575;40;20069;-70
2021/08/03 00:29:38;;;;;;;6.28;1.38;;;15.40;98.20;;;;;;5924663;39;20060;-70
2021/08/03 00:33:51;;;;;;;4.43;1.27;;;15.40;98.10;;;;;;5923435;40;20094;-70
2021/08/03 00:37:53;;;;;;;3.13;1.13;;;15.40;98.10;;;;;;5925057;40;20235;-70
2021/08/03 00:41:58;;;;;;;;;;;15.40;98.10;;;;;;5928342;40;20049;-71
2021/08/03 00:46:02;;;;;;;2.55;1.25;;;15.40;97.80;;;;;;5918955;40;20420;-70
2021/08/03 00:50:06;;;;;;;5.55;1.40;;;15.40;98.00;;;;;;5923144;40;20048;-69
2021/08/03 00:54:11;;;;;;;5.78;1.17;;;15.40;98.10;;;;;;5930968;40;20056;-71
2021/08/03 00:58:13;;;;;;;3.10;1.50;;;15.40;98.10;;;;;;5917473;40;20045;-70
2021/08/03 01:02:17;;;;;;;3.65;1.27;;;15.50;98.10;;;;;;5919796;40;20463;-71
2021/08/03 01:06:36;;;;;;;6.13;1.40;;;15.40;98.10;;;;;;5921956;40;20065;-70
2021/08/03 01:10:55;;;;;;;3.60;1.40;;;15.40;98.10;;;;;;5919189;40;20068;-69
2021/08/03 01:15:19;;;;;;;4.97;1.42;;;15.40;98.10;;;;;;5921393;40;20384;-70
2021/08/03 01:19:52;;;;;;;6.78;2.10;;;15.40;98.20;;;;;;5921607;40;20056;-70
2021/08/03 01:24:18;;;;;;;4.32;1.83;;;15.40;98.20;;;;;;5919639;39;20084;-70
2021/08/03 01:28:38;;;;;;;6.22;1.70;;;15.40;98.20;;;;;;5912858;40;20418;-70
2021/08/03 01:32:44;;;;;;;3.38;1.77;;;15.40;98.20;;;;;;5927623;40;20104;-69
2021/08/03 01:36:51;;;;;;;3.33;1.77;;;15.40;98.30;;;;;;5935879;39;20296;-70
2021/08/03 01:40:59;;;;;;;4.25;1.67;;;15.40;98.30;;;;;;5923285;40;20041;-71
2021/08/03 01:45:01;;;;;;;3.60;1.58;;;15.40;98.30;;;;;;5926981;40;20045;-70
2021/08/03 01:49:04;;;;;;;6.60;1.40;;;15.30;98.30;;;;;;5926057;40;21149;-71
2021/08/03 01:53:09;;;;;;;2.83;1.08;;;15.30;98.40;;;;;;5920806;40;20827;-70
2021/08/03 01:57:14;;;;;;;2.45;1.27;;;15.30;98.40;;;;;;5920341;40;20059;-70
2021/08/03 02:01:21;;;;;;;5.40;1.10;;;15.30;98.50;;;;;;5918274;40;20372;-70
2021/08/03 02:05:25;;;;;;;7.72;1.27;;;15.30;98.50;;;;;;5920592;39;20119;-70
2021/08/03 02:09:36;;;;;;;2.88;0.90;;;15.50;98.70;;;;;;5929248;39;20051;-70
2021/08/03 02:13:38;;;;;;;4.65;1.20;;;15.20;98.60;;;;;;5913579;40;20067;-70
2021/08/03 02:17:47;;;;;;;4.22;0.98;;;15.00;98.60;;;;;;5921756;40;20052;-70
2021/08/03 02:22:04;;;;;;;3.58;1.10;;;15.20;98.70;;;;;;5930065;40;20322;-71
2021/08/03 02:26:11;;;;;;;3.58;1.25;;;15.20;98.80;;;;;;5920323;40;20337;-71
2021/08/03 02:30:14;;;;;;;4.15;1.30;;;15.20;98.90;;;;;;5926756;40;20053;-71
2021/08/03 02:34:28;;;;;;;2.28;0.93;;;15.20;98.90;;;;;;5920075;40;20110;-70
2021/08/03 02:38:36;;;;;;;2.88;1.42;;;15.20;98.90;;;;;;5911412;40;20068;-70
2021/08/03 02:42:39;;;;;;;4.68;1.05;;;15.20;98.90;;;;;;5931170;39;20056;-70
2021/08/03 02:46:43;;;;;;;2.70;0.82;;;15.20;98.90;;;;;;5928891;39;20354;-70
2021/08/03 02:50:46;;;;;;;3.83;1.00;;;15.20;99.00;;;;;;5920223;40;20056;-70
2021/08/03 02:55:03;;;;;;;5.15;1.23;;;15.20;99.00;;;;;;5920321;40;20141;-70
2021/08/03 02:59:10;;;;;;;3.47;1.00;;;15.20;98.90;;;;;;5926575;39;20064;-70
2021/08/03 03:03:16;;;;;;;3.58;0.80;;;15.20;99.00;;;;;;5934371;39;20040;-71
2021/08/03 03:07:26;;;;;;;2.33;0.90;;;15.20;99.00;;;;;;5922263;40;20041;-70
2021/08/03 03:11:31;;;;;;;3.17;0.85;;;15.10;99.00;;;;;;5931078;40;20060;-71
2021/08/03 03:15:40;;;;;;;3.10;1.00;;;15.10;99.00;;;;;;5921865;40;20154;-71
2021/08/03 03:19:44;;;;;;;4.35;1.02;;;15.10;99.00;;;;;;5931316;40;20064;-71
2021/08/03 03:23:49;;;;;;;4.85;1.00;;;15.10;99.00;;;;;;5929362;40;20052;-71
2021/08/03 03:27:57;;;;;;;1.60;0.88;;;15.10;99.00;;;;;;5932491;40;20466;-71
2021/08/03 03:32:00;;;;;;;4.80;1.42;;;15.10;99.00;;;;;;5923532;40;20045;-71
2021/08/03 03:36:05;;;;;;;3.83;1.30;;;15.10;99.00;;;;;;5921656;40;20044;-71
2021/08/03 03:40:09;;;;;;;4.10;1.55;;;15.00;99.00;;;;;;5920937;40;20068;-70
2021/08/03 03:44:11;;;;;;;3.47;1.52;;;15.00;99.00;;;;;;5913127;40;20037;-70
2021/08/03 03:48:18;;;;;;;3.85;1.40;;;15.00;99.00;;;;;;5911556;40;20098;-70
2021/08/03 03:52:22;;;;;;;3.42;1.23;;;15.00;99.00;;;;;;5922168;40;20072;-70
2021/08/03 03:56:30;;;;;;;4.93;1.25;;;15.00;99.00;;;;;;5930595;39;20044;-71
2021/08/03 04:00:38;;;;;;;2.30;0.95;;;15.00;99.10;;;;;;5929372;40;20307;-71
2021/08/03 04:04:43;;;;;;;2.85;0.93;;;15.00;99.10;;;;;;5920585;40;20098;-71
2021/08/03 04:08:45;;;;;;;3.88;0.98;;;15.00;99.10;;;;;;5926401;40;20070;-71
2021/08/03 04:12:47;;;;;;;2.75;0.90;;;15.00;99.10;;;;;;5921325;40;20041;-71
2021/08/03 04:16:54;;;;;;;3.95;0.80;;;15.00;99.10;;;;;;5929349;39;20079;-71
2021/08/03 04:20:57;;;;;;;2.70;1.17;;;15.00;99.10;;;;;;5920073;39;20141;-71
2021/08/03 04:24:59;;;;;;;2.10;0.95;;;14.90;99.10;;;;;;5921496;40;20080;-71
2021/08/03 04:29:01;;;;;;;2.90;0.82;;;15.00;99.10;;;;;;5919826;40;20060;-71
2021/08/03 04:33:03;;;;;;;3.97;1.10;;;15.00;99.10;;;;;;5921753;40;20134;-70
2021/08/03 04:37:07;;;;;;;2.88;1.40;;;16.10;99.40;;;;;;5927100;40;20058;-71
2021/08/03 04:41:09;;;;;;;3.05;1.00;;;15.00;99.10;;;;;;5921665;40;20040;-72
2021/08/03 04:45:11;;;;;;;3.83;1.00;;;15.00;99.10;;;;;;5932731;40;20145;-71
2021/08/03 04:49:13;;;;;;;;;;;15.00;99.00;;;;;;5934016;40;20084;-71
2021/08/03 04:53:15;;;;;;;4.90;1.10;;;15.10;98.70;;;;;;5913159;40;19940;-70
2021/08/03 04:57:17;;;;;;;3.47;1.23;;;15.10;99.00;;;;;;5924122;40;20502;-71
2021/08/03 05:01:18;;;;;;;1.90;1.10;;;15.10;99.00;;;;;;5926756;40;20597;-70
2021/08/03 05:05:21;;;;;;;;;;;15.10;99.00;;;;;;5924978;40;20055;-74
2021/08/03 05:09:22;;;;;;;2.90;1.30;;;15.10;98.60;;;;;;5936952;39;19932;-73
2021/08/03 05:13:25;;;;;;;3.47;0.95;;;15.10;98.90;;;;;;5930376;40;20382;-73
2021/08/03 05:17:31;;;;;;;4.30;0.90;;;15.20;98.90;;;;;;5918521;40;20056;-73
2021/08/03 05:21:33;;;;;;;2.90;1.10;;;15.20;99.00;;;;;;5929722;40;20102;-73
2021/08/03 05:25:35;;;;;;;1.70;0.90;;;15.20;98.90;;;;;;5927404;40;20037;-73
2021/08/03 05:29:37;;;;;;;3.88;0.98;;;15.30;99.00;;;;;;5926750;40;20041;-73
2021/08/03 05:33:40;;;;;;;3.05;1.00;;;15.30;98.90;;;;;;5923543;40;25559;-73
2021/08/03 05:37:42;;;;;;;5.15;1.00;;;15.30;99.00;;;;;;5929758;40;20468;-73
2021/08/03 05:41:44;;;;;;;2.55;0.90;;;15.30;99.00;;;;;;5925886;40;20056;-74
2021/08/03 05:45:46;;;;;;;2.25;0.98;;;15.40;99.00;;;;;;5930471;40;20048;-74
2021/08/03 05:49:48;;;;;;;2.03;0.93;;;15.40;98.90;;;;;;5930510;40;20167;-74
2021/08/03 05:53:49;;;;;;;5.95;0.90;;;15.50;99.00;;;;;;5934410;40;20417;-74
2021/08/03 05:57:51;;;;;;;2.95;1.13;;;15.50;98.90;;;;;;5929327;40;20824;-74
2021/08/03 06:01:53;;;;;;;4.28;1.15;;;15.50;98.90;;;;;;5935618;40;20059;-74
2021/08/03 06:05:55;;;;;;;2.85;1.00;;;15.60;98.80;;;;;;5939796;40;20198;-74
2021/08/03 06:09:58;;;;;;;4.28;0.98;;;15.70;98.90;;;;;;5940246;40;20477;-74
2021/08/03 06:14:01;;;;;;;3.55;0.90;;;15.70;99.00;;;;;;5944650;39;20060;-74
2021/08/03 06:18:18;;;;;;;2.22;0.88;;;15.80;98.80;;;;;;5934412;40;20430;-75
2021/08/03 06:22:20;;;;;;;2.60;0.90;;;15.80;98.60;;;;;;5936287;40;20049;-75
2021/08/03 06:26:23;;;;;;;1.90;0.80;;;15.90;98.50;;;;;;5919059;40;20120;-74
2021/08/03 06:30:25;;;;;;;1.73;0.80;;;16.00;98.50;;;;;;5941989;39;20064;-74
2021/08/03 06:34:27;;;;;;;2.15;0.50;;;16.00;98.30;;;;;;5931775;40;20402;-74
2021/08/03 06:38:29;;;;;;;;;;;16.10;98.10;;;;;;5927645;40;20141;-74
2021/08/03 06:42:47;;;;;;;2.13;0.60;;;16.20;98.30;;;;;;5918441;40;20046;-75
2021/08/03 06:46:55;;;;;;;1.48;0.50;;;16.20;98.10;;;;;;5929377;40;20060;-74
2021/08/03 06:51:04;;;;;;;1.67;0.70;;;16.40;98.00;;;;;;5939593;39;20123;-75
2021/08/03 06:55:07;;;;;;;3.50;0.73;;;16.40;97.70;;;;;;5928235;40;20059;-74
2021/08/03 06:59:17;;;;;;;0.80;0.40;;;16.50;97.80;;;;;;5928826;40;20245;-74
2021/08/03 07:03:24;;;;;;;1.95;0.90;;;16.60;97.70;;;;;;5922450;40;20098;-75
2021/08/03 07:07:27;;;;;;;1.70;0.70;;;16.70;97.50;;;;;;5925938;40;20044;-75
2021/08/03 07:11:30;;;;;;;5.22;0.80;;;16.80;97.60;;;;;;5923025;40;20111;-74
2021/08/03 07:15:32;;;;;;;4.50;0.60;;;16.80;97.10;;;;;;5919416;40;20036;-74
2021/08/03 07:19:35;;;;;;;4.18;1.10;;;16.90;97.20;;;;;;5922817;40;20052;-74
2021/08/03 07:23:37;;;;;;;3.47;0.63;;;16.90;97.00;;;;;;5932307;39;20126;-75
2021/08/03 07:27:39;;;;;;;;;;;17.10;97.30;;;;;;5925425;40;20052;-74
2021/08/03 07:31:44;;;;;;;3.23;0.70;;;17.70;97.80;;;;;;5931143;40;20023;-74
2021/08/03 07:35:46;;;;;;;2.28;0.55;;;17.30;96.90;;;;;;5929403;40;20588;-74
2021/08/03 07:39:48;;;;;;;5.18;0.98;;;17.40;96.40;;;;;;5929308;40;20072;-74
2021/08/03 07:43:49;;;;;;;1.70;0.60;;;17.50;96.40;;;;;;5939792;40;20062;-75
2021/08/03 07:47:52;;;;;;;2.47;0.60;;;17.60;96.30;;;;;;5934178;39;20040;-74
2021/08/03 07:51:53;;;;;;;;;;;17.70;95.90;;;;;;5927977;40;20049;-74
2021/08/03 07:55:55;;;;;;;2.35;0.60;;;17.70;95.30;;;;;;5925587;40;19936;-74
2021/08/03 07:59:57;;;;;;;1.27;0.50;;;17.80;95.50;;;;;;5928396;40;20060;-74
2021/08/03 08:03:59;;;;;;;1.88;0.75;;;17.90;95.10;;;;;;5928523;40;20432;-74
2021/08/03 08:08:01;;;;;;;1.73;0.50;;;17.90;95.20;;;;;;5933077;40;20076;-76
2021/08/03 08:12:03;;;;;;;2.53;0.60;;;17.80;95.40;;;;;;5944317;40;20069;-74
2021/08/03 08:16:05;;;;;;;1.92;0.52;;;17.80;95.50;;;;;;5942386;39;20056;-74
2021/08/03 08:20:12;;;;;;;1.13;0.50;;;17.80;95.20;;;;;;5940423;40;20037;-75
2021/08/03 08:24:14;;;;;;;1.17;0.57;;;17.80;94.80;;;;;;5942289;40;20072;-74
2021/08/03 08:28:16;;;;;;;2.20;0.70;;;17.80;94.90;;;;;;5948883;39;20507;-75
2021/08/03 08:32:18;;;;;;;2.50;0.60;;;17.90;95.10;;;;;;5941232;40;20098;-76
2021/08/03 08:36:20;;;;;;;2.55;0.43;;;18.10;94.70;;;;;;5942176;40;20082;-76
2021/08/03 08:40:22;;;;;;;2.28;0.70;;;18.00;94.20;;;;;;5936626;40;20052;-76
2021/08/03 08:44:25;;;;;;;1.15;0.40;;;18.20;94.30;;;;;;5944652;40;20056;-75
2021/08/03 08:48:28;;;;;;;2.85;0.40;;;18.30;94.80;;;;;;5942361;40;20056;-76
2021/08/03 08:52:31;;;;;;;1.20;0.43;;;18.60;93.90;;;;;;5940919;40;20060;-76
2021/08/03 08:56:33;;;;;;;2.55;0.95;;;18.80;92.80;;;;;;5933635;40;20048;-76
2021/08/03 09:00:35;;;;;;;;;;;19.10;93.50;;;;;;5944105;40;20127;-76
2021/08/03 09:04:43;;;;;;;1.52;0.60;;;19.30;94.50;;;;;;5949442;39;20426;-76
2021/08/03 09:08:45;;;;;;;1.55;0.43;;;19.50;93.30;;;;;;5950469;39;20041;-76
2021/08/03 09:12:56;;;;;;;0.73;0.40;;;19.70;92.30;;;;;;5944308;40;20383;-73
2021/08/03 09:16:59;;;;;;;1.77;0.53;;;19.90;92.60;;;;;;5942349;40;20055;-74
2021/08/03 09:21:01;;;;;;;1.63;0.50;;;20.00;92.60;;;;;;5942654;40;20053;-74
2021/08/03 09:25:12;;;;;;;1.02;0.38;;;20.00;92.10;;;;;;5941981;40;20056;-74
2021/08/03 09:29:16;;;;;;;2.15;0.70;;;20.20;92.00;;;;;;5943614;40;20060;-76
2021/08/03 09:33:26;;;;;;;1.35;0.65;;;20.20;92.10;;;;;;5944745;40;20041;-76
2021/08/03 09:37:38;;;;;;;3.08;0.45;;;20.10;92.10;;;;;;5951949;39;20514;-76
2021/08/03 09:41:46;;;;;;;0.70;0.40;;;20.10;92.30;;;;;;5934521;40;20036;-77
2021/08/03 09:45:48;;;;;;;1.52;0.30;;;20.00;92.00;;;;;;5942478;40;20052;-76
2021/08/03 09:49:52;;;;;;;;;;;20.00;92.10;;;;;;5946458;39;20107;-76
2021/08/03 09:53:54;;;;;;;1.70;0.50;;;19.90;93.60;;;;;;5943531;40;20487;-81
2021/08/03 09:58:03;;;;;;;;;;;19.70;93.20;;;;;;5942885;40;20241;-77
2021/08/03 10:02:05;;;;;;;1.95;0.50;;;19.60;94.40;;;;;;5935244;40;20014;-74
2021/08/03 10:06:07;;;;;;;1.58;0.50;;;19.50;93.60;;;;;;5943030;40;20606;-76
2021/08/03 10:10:09;;;;;;;;;;;19.50;93.20;;;;;;5943857;40;20841;-76
2021/08/03 10:14:11;;;;;;;1.75;0.52;;;19.40;94.40;;;;;;5933963;40;20624;-76
2021/08/03 10:18:13;;;;;;;1.67;0.38;;;19.40;93.50;;;;;;5943905;40;20048;-76
2021/08/03 10:22:27;;;;;;;;;;;19.40;93.00;;;;;;5943780;40;20050;-76
2021/08/03 10:26:29;;;;;;;1.58;0.43;;;19.50;94.40;;;;;;5940483;40;20248;-76
2021/08/03 10:30:35;;;;;;;1.65;0.40;;;19.50;93.00;;;;;;5944137;40;20506;-76
2021/08/03 10:34:43;;;;;;;1.33;0.38;;;19.60;92.90;;;;;;5943244;40;20071;-77
2021/08/03 10:39:08;;;;;;;1.20;0.32;;;19.50;91.90;;;;;;5943748;40;20052;-77
2021/08/03 10:43:34;;;;;;;2.53;0.63;;;19.60;92.30;;;;;;5943018;40;20109;-76
2021/08/03 10:47:41;;;;;;;0.90;0.30;;;19.80;92.20;;;;;;5932418;40;20045;-77
2021/08/03 10:51:44;;;;;;;0.95;0.40;;;20.00;91.80;;;;;;5946141;40;20056;-78
2021/08/03 10:55:58;;;;;;;0.95;0.40;;;20.20;91.90;;;;;;5943813;40;20055;-76
2021/08/03 11:00:01;;;;;;;2.38;0.50;;;20.50;91.30;;;;;;5943044;40;20048;-76
2021/08/03 11:04:03;;;;;;;2.03;0.68;;;20.50;91.60;;;;;;5940691;40;20041;-75
2021/08/03 11:08:41;;;;;;;2.88;0.60;;;20.50;91.20;;;;;;5937537;40;20750;-75
2021/08/03 11:12:46;;;;;;;2.72;0.52;;;20.50;92.30;;;;;;5937803;40;20052;-77
2021/08/03 11:16:50;;;;;;;1.10;0.40;;;20.50;90.50;;;;;;5933614;40;20412;-76
2021/08/03 11:21:00;;;;;;;0.57;0.40;;;20.40;90.70;;;;;;5951150;39;20053;-76
2021/08/03 11:25:03;;;;;;;2.42;0.50;;;20.40;91.10;;;;;;5943423;40;20055;-75
2021/08/03 11:29:06;;;;;;;3.15;0.50;;;20.50;91.00;;;;;;5942638;40;20649;-76
2021/08/03 11:33:08;;;;;;;1.95;0.60;;;20.60;91.20;;;;;;5941130;40;20045;-75
2021/08/03 11:37:21;;;;;;;1.30;0.40;;;20.70;90.90;;;;;;5948297;39;20098;-77
2021/08/03 11:41:24;;;;;;;1.17;0.43;;;20.70;91.00;;;;;;5941026;40;20429;-75
2021/08/03 11:45:26;;;;;;;1.42;0.60;;;20.70;90.80;;;;;;5941414;40;20055;-76
2021/08/03 11:49:31;;;;;;;1.98;0.70;;;20.70;91.20;;;;;;5939451;40;20134;-76
2021/08/03 11:53:33;;;;;;;1.63;0.47;;;20.70;90.60;;;;;;5940559;40;20076;-76
2021/08/03 11:57:39;;;;;;;;;;;20.80;90.30;;;;;;5943082;40;20415;-76
2021/08/03 12:01:51;;;;;;;2.75;0.55;;;20.90;91.80;;;;;;5939922;40;20040;-76
2021/08/03 12:05:53;;;;;;;1.17;0.50;;;20.90;90.80;;;;;;5941879;40;20110;-77
2021/08/03 12:09:55;;;;;;;1.63;0.60;;;20.90;90.60;;;;;;5939662;40;20340;-76
2021/08/03 12:14:07;;;;;;;0.93;0.30;;;20.80;90.30;;;;;;5940545;40;20146;-76
2021/08/03 12:18:09;;;;;;;2.15;0.40;;;20.70;90.60;;;;;;5942186;40;20064;-77
2021/08/03 12:22:28;;;;;;;1.23;0.50;;;20.60;90.60;;;;;;5941583;40;20051;-76
2021/08/03 12:26:30;;;;;;;1.98;0.47;;;20.60;91.20;;;;;;5942902;40;20088;-76
2021/08/03 12:30:35;;;;;;;2.83;0.65;;;20.50;90.60;;;;;;5938758;40;20048;-76
2021/08/03 12:34:38;;;;;;;1.58;0.55;;;20.50;90.60;;;;;;5949694;39;20059;-76
2021/08/03 12:38:40;;;;;;;0.93;0.50;;;20.60;90.00;;;;;;5940804;40;20053;-77
2021/08/03 12:42:48;;;;;;;1.08;0.38;;;20.70;90.20;;;;;;5941880;40;20238;-75
2021/08/03 12:46:50;;;;;;;1.85;0.52;;;20.70;89.70;;;;;;5946617;39;20057;-76
2021/08/03 12:50:53;;;;;;;2.17;0.40;;;20.70;89.00;;;;;;5939961;40;20114;-74
2021/08/03 12:55:10;;;;;;;3.13;0.50;;;20.80;88.60;;;;;;5933766;40;20110;-75
2021/08/03 12:59:43;;;;;;;1.52;0.60;;;20.90;89.60;;;;;;5941683;40;20271;-75
2021/08/03 13:03:51;;;;;;;1.83;0.50;;;21.00;88.10;;;;;;5947331;39;20056;-73
2021/08/03 13:07:53;;;;;;;1.15;0.47;;;21.10;87.80;;;;;;5941846;40;20056;-73
2021/08/03 13:11:57;;;;;;;0.93;0.35;;;21.00;87.80;;;;;;5940880;40;20811;-75
2021/08/03 13:15:58;;;;;;;1.15;0.50;;;21.10;88.50;;;;;;5942363;40;20121;-75
2021/08/03 13:20:01;;;;;;;1.80;0.47;;;21.30;87.20;;;;;;5942899;40;20070;-76
2021/08/03 13:24:03;;;;;;;1.05;0.43;;;21.40;87.10;;;;;;5938640;40;20323;-75
2021/08/03 13:28:05;;;;;;;2.67;0.47;;;21.30;86.30;;;;;;5933663;40;20106;-76
2021/08/03 13:32:07;;;;;;;;;;;21.40;86.90;;;;;;5939923;40;20061;-72
2021/08/03 13:36:09;;;;;;;;;;;21.40;90.60;;;;;;5939619;40;20219;-71
2021/08/03 13:40:13;;;;;;;1.38;0.40;;;21.40;90.20;;;;;;5930045;40;19940;-71
2021/08/03 13:44:15;;;;;;;2.15;0.45;;;21.40;88.00;;;;;;5934422;40;20122;-72
2021/08/03 13:48:17;;;;;;;1.27;0.40;;;21.50;88.30;;;;;;5933394;40;20045;-71
2021/08/03 13:52:19;;;;;;;1.70;0.43;;;21.60;87.10;;;;;;5933041;40;20131;-71
2021/08/03 13:56:21;;;;;;;;;;;21.70;86.40;;;;;;5932455;40;20062;-72
2021/08/03 14:00:22;;;;;;;0.88;0.40;;;21.80;90.10;;;;;;5930892;40;19945;-72
2021/08/03 14:04:24;;;;;;;;;;;21.90;86.80;;;;;;5930324;40;20040;-72
2021/08/03 14:08:27;;;;;;;;;;;22.00;89.80;;;;;;5932292;40;19948;-71
2021/08/03 14:12:28;;;;;;;;;;;22.00;84.70;;;;;;5933312;40;19932;-72
2021/08/03 14:16:31;;;;;;;1.25;0.40;;;21.90;85.00;;;;;;5927548;40;19939;-72
2021/08/03 14:20:32;;;;;;;1.30;0.38;;;21.90;86.60;;;;;;5932034;40;20070;-72
2021/08/03 14:24:35;;;;;;;1.08;0.50;;;21.90;85.90;;;;;;5929972;40;20052;-72
2021/08/03 14:28:37;;;;;;;3.75;0.70;;;21.80;85.30;;;;;;5929979;40;20356;-71
2021/08/03 14:32:38;;;;;;;1.92;0.50;;;21.70;86.30;;;;;;5932687;40;20434;-71
2021/08/03 14:36:41;;;;;;;1.95;0.80;;;21.60;85.40;;;;;;5933517;40;20466;-73
2021/08/03 14:40:43;;;;;;;1.13;0.40;;;21.60;85.20;;;;;;5923101;40;20051;-71
2021/08/03 14:44:46;;;;;;;2.03;0.50;;;21.60;85.90;;;;;;5932781;40;20048;-71
2021/08/03 14:48:50;;;;;;;;;;;21.50;84.70;;;;;;5931005;40;20067;-72
2021/08/03 14:52:52;;;;;;;2.65;0.60;;;21.40;88.60;;;;;;5937879;39;19941;-71
2021/08/03 14:56:54;;;;;;;0.70;0.50;;;21.20;87.10;;;;;;5931252;40;20056;-72
2021/08/03 15:00:56;;;;;;;1.25;0.40;;;21.10;86.00;;;;;;5930663;40;20354;-72
2021/08/03 15:04:58;;;;;;;1.50;0.40;;;21.00;85.90;;;;;;5931650;40;20267;-72
2021/08/03 15:09:00;;;;;;;1.35;0.40;;;20.80;86.40;;;;;;5932342;40;20084;-72
2021/08/03 15:13:02;;;;;;;0.70;0.30;;;21.50;85.70;;;;;;5928451;40;20064;-72
2021/08/03 15:17:04;;;;;;;1.52;0.38;;;20.80;86.30;;;;;;5932100;40;20048;-72
2021/08/03 15:21:06;;;;;;;1.02;0.40;;;20.70;85.70;;;;;;5933201;40;20090;-72
2021/08/03 15:25:08;;;;;;;2.67;0.32;;;20.70;86.10;;;;;;5932735;40;21366;-72
2021/08/03 15:29:10;;;;;;;1.63;0.50;;;20.80;86.10;;;;;;5933150;40;20048;-72
2021/08/03 15:33:12;;;;;;;2.78;0.60;;;20.70;86.40;;;;;;5932267;40;20049;-73
2021/08/03 15:37:15;;;;;;;1.20;0.50;;;20.70;86.10;;;;;;5933800;40;20046;-69
2021/08/03 15:41:18;;;;;;;0.98;0.47;;;20.70;86.30;;;;;;5930322;40;20100;-72
2021/08/03 15:45:19;;;;;;;2.35;0.40;;;20.70;86.20;;;;;;5933772;40;20048;-72
2021/08/03 15:49:21;;;;;;;;;;;20.60;86.20;;;;;;5937316;40;20054;-72
2021/08/03 15:53:23;;;;;;;0.88;0.40;;;20.60;89.40;;;;;;5935341;40;19948;-72
2021/08/03 15:57:25;;;;;;;1.35;0.40;;;20.50;86.20;;;;;;5936700;40;20060;-72
2021/08/03 16:01:27;;;;;;;;;;;20.40;85.70;;;;;;5938312;40;20289;-72
2021/08/03 16:05:29;;;;;;;0.80;0.40;;;20.40;81.70;;;;;;5933241;40;19936;-71
2021/08/03 16:09:31;;;;;;;1.50;0.40;;;20.30;86.40;;;;;;5935759;40;20056;-69
2021/08/03 16:13:33;;;;;;;;;;;20.30;85.00;;;;;;5924232;40;20057;-72
2021/08/03 16:17:40;;;;;;;1.30;0.40;;;20.20;87.10;;;;;;5934581;40;19945;-71
2021/08/03 16:21:43;;;;;;;2.03;0.70;;;20.10;85.70;;;;;;5931615;40;20133;-71
2021/08/03 16:25:46;;;;;;;0.65;0.38;;;20.10;85.30;;;;;;5933834;40;20048;-71
2021/08/03 16:29:48;;;;;;;1.00;0.40;;;20.10;85.00;;;;;;5932240;40;20086;-72
2021/08/03 16:33:51;;;;;;;;;;;20.10;84.90;;;;;;5933466;40;20056;-72
2021/08/03 16:37:58;;;;;;;0.93;0.45;;;20.10;86.20;;;;;;5935218;40;19990;-72
2021/08/03 16:42:08;;;;;;;1.00;0.30;;;20.00;84.30;;;;;;5940820;39;20426;-72
2021/08/03 16:46:11;;;;;;;2.13;0.50;;;20.00;84.70;;;;;;5933508;40;20057;-70
2021/08/03 16:50:14;;;;;;;1.38;0.50;;;20.00;84.50;;;;;;5932673;40;20197;-72
2021/08/03 16:54:21;;;;;;;1.55;0.40;;;19.90;84.80;;;;;;5934271;40;20052;-70
2021/08/03 16:58:22;;;;;;;1.58;0.50;;;19.90;85.40;;;;;;5933310;40;20057;-73
2021/08/03 17:02:38;;;;;;;;;;;19.90;84.70;;;;;;5935346;40;20073;-73
2021/08/03 17:06:52;;;;;;;1.77;0.63;;;19.80;86.60;;;;;;5936202;40;20867;-70
2021/08/03 17:11:00;;;;;;;1.42;0.45;;;19.80;85.20;;;;;;5933670;40;20048;-72
2021/08/03 17:15:02;;;;;;;1.20;0.40;;;19.80;84.80;;;;;;5934355;40;20055;-73
2021/08/03 17:19:06;;;;;;;1.08;0.50;;;19.70;84.70;;;;;;5933728;40;20516;-73
2021/08/03 17:23:12;;;;;;;1.30;0.35;;;19.70;84.10;;;;;;5932665;40;20041;-72
2021/08/03 17:27:23;;;;;;;1.90;0.30;;;19.60;84.60;;;;;;5934467;40;20537;-72
2021/08/03 17:31:26;;;;;;;1.20;0.43;;;19.60;85.40;;;;;;5933282;40;20059;-72
2021/08/03 17:35:28;;;;;;;1.48;0.30;;;19.50;84.80;;;;;;5934057;40;20126;-72
2021/08/03 17:39:30;;;;;;;1.00;0.40;;;19.40;85.30;;;;;;5936776;40;20124;-71
2021/08/03 17:43:33;;;;;;;2.95;0.52;;;19.40;85.50;;;;;;5939495;40;20374;-72
2021/08/03 17:47:40;;;;;;;2.72;0.30;;;19.30;86.60;;;;;;5936215;40;20124;-71
2021/08/03 17:51:43;;;;;;;1.58;0.55;;;19.40;87.70;;;;;;5932861;40;20338;-71
2021/08/03 17:55:48;;;;;;;1.15;0.60;;;19.20;87.30;;;;;;5935965;40;20127;-71
2021/08/03 17:59:52;;;;;;;2.63;0.65;;;18.70;87.70;;;;;;5937458;40;20060;-71
2021/08/03 18:03:55;;;;;;;2.55;0.50;;;19.00;88.50;;;;;;5937596;40;20053;-72
2021/08/03 18:07:58;;;;;;;1.50;0.47;;;18.90;88.70;;;;;;5938563;40;20114;-72
2021/08/03 18:12:04;;;;;;;1.45;0.50;;;18.90;89.00;;;;;;5925242;40;20088;-73
2021/08/03 18:16:08;;;;;;;3.13;1.38;;;18.80;89.10;;;;;;5935948;40;20078;-71
2021/08/03 18:20:12;;;;;;;3.92;0.60;;;18.80;89.50;;;;;;5936913;40;20052;-72
2021/08/03 18:24:14;;;;;;;3.80;0.80;;;18.70;89.90;;;;;;5938369;40;20559;-72
2021/08/03 18:28:21;;;;;;;;;;;18.70;90.00;;;;;;5928720;40;20130;-72
2021/08/03 18:32:41;;;;;;;3.28;0.60;;;18.50;90.00;;;;;;5933097;40;19933;-71
2021/08/03 18:36:47;;;;;;;2.60;0.73;;;18.50;90.20;;;;;;5936923;40;20056;-71
2021/08/03 18:40:48;;;;;;;2.67;1.00;;;18.50;90.30;;;;;;5935814;40;20485;-71
2021/08/03 18:44:52;;;;;;;;;;;18.40;90.50;;;;;;5937976;40;20081;-72
2021/08/03 18:48:55;;;;;;;2.85;0.90;;;18.40;90.40;;;;;;5934029;40;19940;-73
2021/08/03 18:52:59;;;;;;;1.83;0.70;;;18.30;90.60;;;;;;5928033;40;20056;-71
2021/08/03 18:57:05;;;;;;;2.60;0.77;;;18.30;90.60;;;;;;5939367;39;20071;-71
2021/08/03 19:01:10;;;;;;;1.30;0.60;;;18.20;90.70;;;;;;5935582;40;20053;-74
2021/08/03 19:05:16;;;;;;;2.42;0.90;;;18.10;90.70;;;;;;5939290;40;20657;-73
2021/08/03 19:09:19;;;;;;;2.38;1.00;;;18.00;90.90;;;;;;5937487;40;20674;-74
2021/08/03 19:13:25;;;;;;;3.58;0.82;;;18.00;90.90;;;;;;5928224;40;20125;-71
2021/08/03 19:17:34;;;;;;;2.00;0.60;;;17.90;91.00;;;;;;5930042;40;20056;-71
2021/08/03 19:21:47;;;;;;;2.08;0.75;;;17.90;91.10;;;;;;5930146;40;20131;-72
2021/08/03 19:25:50;;;;;;;3.72;0.98;;;17.80;91.10;;;;;;5932502;39;20486;-71
2021/08/03 19:29:52;;;;;;;3.33;1.20;;;17.70;91.20;;;;;;5931042;40;20566;-72
2021/08/03 19:33:54;;;;;;;;;;;17.70;91.30;;;;;;5932627;40;20036;-70
2021/08/03 19:37:56;;;;;;;2.05;1.00;;;17.60;90.90;;;;;;5931989;40;19976;-72
2021/08/03 19:41:58;;;;;;;4.28;0.95;;;17.50;91.30;;;;;;5932955;40;20521;-71
2021/08/03 19:46:02;;;;;;;2.38;1.10;;;17.50;91.40;;;;;;5928134;40;20360;-72
2021/08/03 19:50:16;;;;;;;2.05;0.93;;;17.40;91.50;;;;;;5931355;40;20060;-72
2021/08/03 19:54:19;;;;;;;1.55;0.70;;;17.40;91.60;;;;;;5930614;40;20045;-71
2021/08/03 19:58:22;;;;;;;1.88;0.70;;;17.30;91.60;;;;;;5933085;40;20044;-71
2021/08/03 20:02:24;;;;;;;5.75;1.02;;;17.30;91.60;;;;;;5928941;40;20068;-70
2021/08/03 20:06:26;;;;;;;;;;;17.30;91.70;;;;;;5934132;40;20049;-71
2021/08/03 20:10:31;;;;;;;4.60;1.20;;;17.10;91.30;;;;;;5935308;40;19940;-71
2021/08/03 20:14:33;;;;;;;1.65;0.70;;;17.10;91.80;;;;;;5935996;40;20061;-71
2021/08/03 20:18:38;;;;;;;;;;;17.00;91.90;;;;;;5933326;40;20049;-72
2021/08/03 20:22:40;;;;;;;1.83;0.52;;;16.90;91.40;;;;;;5936689;40;19929;-73
2021/08/03 20:26:47;;;;;;;1.67;0.63;;;16.80;91.90;;;;;;5936144;40;20112;-71
2021/08/03 20:30:56;;;;;;;1.80;0.60;;;16.80;92.10;;;;;;5933128;40;20061;-72
2021/08/03 20:35:00;;;;;;;4.38;0.82;;;16.70;92.10;;;;;;5934586;40;20077;-72
2021/08/03 20:39:21;;;;;;;1.50;0.73;;;16.60;92.10;;;;;;5934883;40;20052;-72
2021/08/03 20:43:26;;;;;;;1.47;0.53;;;16.50;92.20;;;;;;5933957;40;20052;-73
2021/08/03 20:47:30;;;;;;;1.17;0.60;;;16.50;92.20;;;;;;5930306;40;20456;-72
2021/08/03 20:51:33;;;;;;;1.45;0.75;;;16.40;92.30;;;;;;5935664;40;20356;-71
2021/08/03 20:55:36;;;;;;;3.75;1.23;;;16.30;92.40;;;;;;5934967;40;20560;-71
2021/08/03 20:59:38;;;;;;;2.65;0.70;;;16.30;92.50;;;;;;5929390;40;20147;-71
2021/08/03 21:03:50;;;;;;;1.40;0.80;;;16.20;92.50;;;;;;5926041;40;20103;-71
2021/08/03 21:07:58;;;;;;;2.38;1.10;;;16.20;92.50;;;;;;5932845;40;20178;-72
2021/08/03 21:12:00;;;;;;;3.55;1.17;;;16.10;92.50;;;;;;5931624;40;20695;-70
2021/08/03 21:16:03;;;;;;;2.17;0.98;;;16.00;92.60;;;;;;5931089;40;20048;-71
2021/08/03 21:20:23;;;;;;;3.17;1.42;;;15.90;92.70;;;;;;5932278;40;20063;-70
2021/08/03 21:24:48;;;;;;;2.50;1.42;;;15.80;92.80;;;;;;5932691;40;20060;-71
2021/08/03 21:29:08;;;;;;;2.13;1.10;;;15.80;92.80;;;;;;5931661;39;20052;-71